Time,TemperatureF,DewpointF,PressureIn,WindDirection,WindDirectionDegrees,WindSpeedMPH,WindSpeedGustMPH,Humidity,HourlyPrecipIn,Conditions,Clouds,dailyrainin,SolarRadiationWatts/m^2,SoftwareType,DateUTC
2013-06-17 00:01:00,67.0,64.6,29.95,SW,216,0.0,0.0,92,0.00,,,0.00,0,Wunderground v.1.15,2013-06-17 04:01:00,
2013-06-17 00:06:00,67.0,64.9,29.95,SW,216,0.0,0.0,93,0.00,,,0.00,0,Wunderground v.1.15,2013-06-17 04:06:00,
2013-06-17 00:11:00,66.9,64.8,29.95,SW,216,0.0,0.0,93,0.00,,,0.00,0,Wunderground v.1.15,2013-06-17 04:11:00,
2013-06-17 00:16:00,66.8,64.7,29.95,SW,216,0.0,0.0,93,0.00,,,0.00,0,Wunderground v.1.15,2013-06-17 04:16:00,
2013-06-17 00:21:00,66.9,64.8,29.95,SW,216,0.0,0.0,93,0.00,,,0.00,0,Wunderground v.1.15,2013-06-17 04:21:00,
2013-06-17 00:26:00,66.8,64.7,29.95,SW,216,0.0,0.0,93,0.00,,,0.00,0,Wunderground v.1.15,2013-06-17 04:26:00,
2013-06-17 00:31:00,66.8,64.7,29.95,SW,216,0.0,0.0,93,0.00,,,0.00,0,Wunderground v.1.15,2013-06-17 04:31:00,
2013-06-17 00:36:00,66.9,65.1,29.95,SW,216,0.0,0.0,94,0.00,,,0.00,0,Wunderground v.1.15,2013-06-17 04:36:00,
2013-06-17 00:41:00,66.9,64.8,29.95,SW,216,0.0,0.0,93,0.00,,,0.00,0,Wunderground v.1.15,2013-06-17 04:41:00,
2013-06-17 00:46:00,67.1,65.0,29.95,SW,216,0.0,0.0,93,0.00,,,0.00,0,Wunderground v.1.15,2013-06-17 04:46:00,
2013-06-17 00:51:00,67.3,65.5,29.95,SW,216,0.0,0.0,94,0.00,,,0.00,0,Wunderground v.1.15,2013-06-17 04:51:00,
2013-06-17 00:56:00,67.4,65.3,29.95,SW,216,0.0,1.0,93,0.00,,,0.00,0,Wunderground v.1.15,2013-06-17 04:56:00,
2013-06-17 01:01:00,67.2,65.1,29.95,SW,216,0.0,0.0,93,0.00,,,0.00,0,Wunderground v.1.15,2013-06-17 05:01:00,
2013-06-17 01:06:00,67.1,65.0,29.95,SW,216,0.0,0.0,93,0.00,,,0.00,0,Wunderground v.1.15,2013-06-17 05:06:00,
2013-06-17 01:11:00,67.1,65.3,29.95,SW,216,0.0,0.0,94,0.00,,,0.00,0,Wunderground v.1.15,2013-06-17 05:11:00,
2013-06-17 01:16:00,67.2,65.4,29.95,SW,216,0.0,0.0,94,0.00,,,0.00,0,Wunderground v.1.15,2013-06-17 05:16:00,
2013-06-17 01:21:00,67.2,65.4,29.96,SW,216,0.0,0.0,94,0.00,,,0.00,0,Wunderground v.1.15,2013-06-17 05:21:00,
2013-06-17 01:26:00,67.2,65.4,29.96,SW,216,0.0,0.0,94,0.00,,,0.00,0,Wunderground v.1.15,2013-06-17 05:26:00,
2013-06-17 01:31:00,67.3,65.5,29.95,SW,216,0.0,1.0,94,0.00,,,0.00,0,Wunderground v.1.15,2013-06-17 05:31:00,
2013-06-17 01:36:00,67.4,65.6,29.95,SW,216,0.0,2.0,94,0.00,,,0.00,0,Wunderground v.1.15,2013-06-17 05:36:00,
2013-06-17 01:41:00,67.4,65.6,29.95,SW,219,0.0,2.0,94,0.00,,,0.00,0,Wunderground v.1.15,2013-06-17 05:41:00,
2013-06-17 01:46:00,67.4,65.6,29.95,SW,215,2.0,4.0,94,0.00,,,0.00,0,Wunderground v.1.15,2013-06-17 05:46:00,
2013-06-17 01:51:00,67.4,65.6,29.95,SW,222,2.0,3.0,94,0.00,,,0.00,0,Wunderground v.1.15,2013-06-17 05:51:00,
2013-06-17 01:56:00,67.4,65.3,29.95,SSW,204,0.0,4.0,93,0.00,,,0.00,0,Wunderground v.1.15,2013-06-17 05:56:00,
2013-06-17 02:01:00,67.4,65.3,29.95,SSW,209,2.0,4.0,93,0.00,,,0.00,0,Wunderground v.1.15,2013-06-17 06:01:00,
2013-06-17 02:06:00,67.4,65.3,29.95,SW,227,1.0,5.0,93,0.00,,,0.00,0,Wunderground v.1.15,2013-06-17 06:06:00,
2013-06-17 02:11:00,67.4,65.3,29.95,SSW,204,1.0,3.0,93,0.00,,,0.00,0,Wunderground v.1.15,2013-06-17 06:11:00,
2013-06-17 02:16:00,67.5,65.4,29.95,SSW,196,0.0,3.0,93,0.00,,,0.00,0,Wunderground v.1.15,2013-06-17 06:16:00,
2013-06-17 02:21:00,67.5,65.4,29.95,SSW,202,3.0,3.0,93,0.00,,,0.00,0,Wunderground v.1.15,2013-06-17 06:21:00,
2013-06-17 02:26:00,67.5,65.4,29.95,SSW,207,1.0,3.0,93,0.00,,,0.00,0,Wunderground v.1.15,2013-06-17 06:26:00,
2013-06-17 02:31:00,67.5,65.4,29.95,SSW,207,0.0,2.0,93,0.00,,,0.00,0,Wunderground v.1.15,2013-06-17 06:31:00,
2013-06-17 02:36:00,67.4,65.3,29.95,SSW,207,0.0,2.0,93,0.00,,,0.00,0,Wunderground v.1.15,2013-06-17 06:36:00,
2013-06-17 02:41:00,67.3,65.2,29.95,SSW,211,0.0,3.0,93,0.00,,,0.00,0,Wunderground v.1.15,2013-06-17 06:41:00,
2013-06-17 02:46:00,67.2,65.1,29.94,SSW,208,0.0,3.0,93,0.00,,,0.00,0,Wunderground v.1.15,2013-06-17 06:46:00,
2013-06-17 02:51:00,67.1,65.0,29.94,SSW,210,0.0,2.0,93,0.00,,,0.00,0,Wunderground v.1.15,2013-06-17 06:51:00,
2013-06-17 02:56:00,67.0,64.9,29.94,SSW,210,1.0,3.0,93,0.00,,,0.00,0,Wunderground v.1.15,2013-06-17 06:56:00,
2013-06-17 03:01:00,66.9,64.8,29.94,SSW,212,3.0,4.0,93,0.00,,,0.00,0,Wunderground v.1.15,2013-06-17 07:01:00,
2013-06-17 03:06:00,66.9,64.8,29.94,SW,215,0.0,4.0,93,0.00,,,0.00,0,Wunderground v.1.15,2013-06-17 07:06:00,
2013-06-17 03:11:00,66.8,64.7,29.94,SW,214,1.0,3.0,93,0.00,,,0.00,0,Wunderground v.1.15,2013-06-17 07:11:00,
2013-06-17 03:16:00,66.8,64.7,29.94,SSW,213,0.0,3.0,93,0.00,,,0.00,0,Wunderground v.1.15,2013-06-17 07:16:00,
2013-06-17 03:21:00,66.8,65.0,29.94,SSW,201,0.0,2.0,94,0.00,,,0.00,0,Wunderground v.1.15,2013-06-17 07:21:00,
2013-06-17 03:26:00,66.7,64.9,29.94,SSW,201,0.0,2.0,94,0.00,,,0.00,0,Wunderground v.1.15,2013-06-17 07:26:00,
2013-06-17 03:31:00,66.7,64.9,29.94,SSW,205,0.0,3.0,94,0.00,,,0.00,0,Wunderground v.1.15,2013-06-17 07:31:00,
2013-06-17 03:36:00,66.7,64.9,29.94,SSW,205,0.0,3.0,94,0.00,,,0.00,0,Wunderground v.1.15,2013-06-17 07:36:00,
2013-06-17 03:41:00,66.7,64.9,29.94,SSW,205,0.0,1.0,94,0.00,,,0.00,0,Wunderground v.1.15,2013-06-17 07:41:00,
2013-06-17 03:46:00,66.7,64.9,29.94,SSW,205,0.0,2.0,94,0.00,,,0.00,0,Wunderground v.1.15,2013-06-17 07:46:00,
2013-06-17 03:51:00,66.7,64.9,29.94,SSW,205,1.0,1.0,94,0.00,,,0.00,0,Wunderground v.1.15,2013-06-17 07:51:00,
2013-06-17 03:56:00,66.7,64.9,29.93,SSW,205,0.0,2.0,94,0.00,,,0.00,0,Wunderground v.1.15,2013-06-17 07:56:00,
2013-06-17 04:01:00,66.7,64.9,29.94,SSW,202,1.0,2.0,94,0.00,,,0.00,0,Wunderground v.1.15,2013-06-17 08:01:00,
2013-06-17 04:06:00,66.6,64.8,29.93,SSW,203,0.0,2.0,94,0.00,,,0.00,0,Wunderground v.1.15,2013-06-17 08:06:00,
2013-06-17 04:11:00,66.6,64.8,29.93,SSW,203,1.0,1.0,94,0.00,,,0.00,0,Wunderground v.1.15,2013-06-17 08:11:00,
2013-06-17 04:16:00,66.5,64.7,29.93,SSW,203,0.0,2.0,94,0.00,,,0.00,0,Wunderground v.1.15,2013-06-17 08:16:00,
2013-06-17 04:21:00,66.5,64.7,29.93,SSW,203,0.0,0.0,94,0.00,,,0.00,0,Wunderground v.1.15,2013-06-17 08:21:00,
2013-06-17 04:26:00,66.5,64.7,29.93,SSW,203,0.0,1.0,94,0.00,,,0.00,0,Wunderground v.1.15,2013-06-17 08:26:00,
2013-06-17 04:31:00,66.4,64.6,29.93,SSW,203,0.0,0.0,94,0.00,,,0.00,0,Wunderground v.1.15,2013-06-17 08:31:00,
2013-06-17 04:36:00,66.3,64.5,29.93,SSW,203,0.0,0.0,94,0.00,,,0.00,0,Wunderground v.1.15,2013-06-17 08:36:00,
2013-06-17 04:41:00,66.3,64.5,29.93,SSW,203,0.0,0.0,94,0.00,,,0.00,0,Wunderground v.1.15,2013-06-17 08:41:00,
2013-06-17 04:46:00,66.2,64.4,29.93,SSW,203,0.0,0.0,94,0.00,,,0.00,0,Wunderground v.1.15,2013-06-17 08:46:00,
2013-06-17 04:51:00,66.1,64.6,29.94,SSW,203,0.0,1.0,95,0.00,,,0.00,0,Wunderground v.1.15,2013-06-17 08:51:00,
2013-06-17 04:56:00,66.1,64.6,29.93,SSW,203,0.0,2.0,95,0.00,,,0.00,0,Wunderground v.1.15,2013-06-17 08:56:00,
2013-06-17 05:02:00,66.1,64.3,29.93,SSW,203,1.0,2.0,94,0.00,,,0.00,0,Wunderground v.1.15,2013-06-17 09:02:00,
2013-06-17 05:07:00,66.2,64.7,29.93,SSW,203,0.0,2.0,95,0.00,,,0.00,0,Wunderground v.1.15,2013-06-17 09:07:00,
2013-06-17 05:12:00,66.2,64.7,29.93,SSW,203,1.0,2.0,95,0.00,,,0.00,0,Wunderground v.1.15,2013-06-17 09:12:00,
2013-06-17 05:17:00,66.2,64.7,29.93,SW,221,4.0,4.0,95,0.00,,,0.00,0,Wunderground v.1.15,2013-06-17 09:17:00,
2013-06-17 05:22:00,66.2,64.7,29.93,SSW,207,2.0,4.0,95,0.00,,,0.00,0,Wunderground v.1.15,2013-06-17 09:22:00,
2013-06-17 05:27:00,66.2,64.7,29.93,SW,228,0.0,4.0,95,0.00,,,0.00,0,Wunderground v.1.15,2013-06-17 09:27:00,
2013-06-17 05:32:00,66.2,64.7,29.93,SW,228,1.0,4.0,95,0.00,,,0.00,0,Wunderground v.1.15,2013-06-17 09:32:00,
2013-06-17 05:37:00,66.2,64.7,29.93,SW,228,1.0,4.0,95,0.00,,,0.00,0,Wunderground v.1.15,2013-06-17 09:37:00,
2013-06-17 05:42:00,66.2,64.7,29.93,SW,228,0.0,2.0,95,0.00,,,0.00,0,Wunderground v.1.15,2013-06-17 09:42:00,
2013-06-17 05:47:00,66.1,64.6,29.93,SW,228,0.0,2.0,95,0.00,,,0.00,0,Wunderground v.1.15,2013-06-17 09:47:00,
2013-06-17 05:52:00,66.0,64.5,29.93,SW,228,0.0,0.0,95,0.00,,,0.00,0,Wunderground v.1.15,2013-06-17 09:52:00,
2013-06-17 05:57:00,66.0,64.5,29.93,SW,228,0.0,1.0,95,0.00,,,0.00,0,Wunderground v.1.15,2013-06-17 09:57:00,
2013-06-17 06:02:00,66.1,64.6,29.94,SW,228,0.0,1.0,95,0.00,,,0.00,0,Wunderground v.1.15,2013-06-17 10:02:00,
2013-06-17 06:07:00,66.2,64.7,29.93,SW,228,0.0,2.0,95,0.00,,,0.00,0,Wunderground v.1.15,2013-06-17 10:07:00,
2013-06-17 06:12:00,66.2,64.7,29.93,SW,228,0.0,2.0,95,0.00,,,0.00,0,Wunderground v.1.15,2013-06-17 10:12:00,
2013-06-17 06:17:00,66.2,64.7,29.93,SW,228,1.0,2.0,95,0.00,,,0.00,0,Wunderground v.1.15,2013-06-17 10:17:00,
2013-06-17 06:22:00,66.2,64.7,29.93,SW,228,0.0,2.0,95,0.00,,,0.00,0,Wunderground v.1.15,2013-06-17 10:22:00,
2013-06-17 06:27:00,66.2,64.7,29.94,SW,228,0.0,3.0,95,0.00,,,0.00,0,Wunderground v.1.15,2013-06-17 10:27:00,
2013-06-17 06:32:00,66.2,64.7,29.94,ENE,68,1.0,3.0,95,0.00,,,0.00,7,Wunderground v.1.15,2013-06-17 10:32:00,
2013-06-17 06:37:00,66.2,64.7,29.94,South,176,0.0,3.0,95,0.00,,,0.00,11,Wunderground v.1.15,2013-06-17 10:37:00,
2013-06-17 06:42:00,66.2,64.7,29.94,South,176,0.0,0.0,95,0.00,,,0.00,12,Wunderground v.1.15,2013-06-17 10:42:00,
2013-06-17 06:47:00,66.1,64.6,29.94,South,176,0.0,0.0,95,0.00,,,0.00,18,Wunderground v.1.15,2013-06-17 10:47:00,
2013-06-17 06:52:00,66.1,64.6,29.94,South,176,0.0,0.0,95,0.00,,,0.00,25,Wunderground v.1.15,2013-06-17 10:52:00,
2013-06-17 06:57:00,66.2,64.7,29.94,South,176,0.0,0.0,95,0.00,,,0.00,35,Wunderground v.1.15,2013-06-17 10:57:00,
2013-06-17 07:02:00,66.3,64.8,29.94,South,176,0.0,0.0,95,0.00,,,0.00,46,Wunderground v.1.15,2013-06-17 11:02:00,
2013-06-17 07:07:00,66.5,65.0,29.95,South,176,0.0,0.0,95,0.00,,,0.00,42,Wunderground v.1.15,2013-06-17 11:07:00,
2013-06-17 07:12:00,66.6,65.1,29.95,South,176,0.0,0.0,95,0.00,,,0.00,56,Wunderground v.1.15,2013-06-17 11:12:00,
2013-06-17 07:17:00,66.7,65.2,29.94,South,176,0.0,0.0,95,0.00,,,0.00,70,Wunderground v.1.15,2013-06-17 11:17:00,
2013-06-17 07:22:00,66.8,65.3,29.95,South,176,1.0,1.0,95,0.00,,,0.00,76,Wunderground v.1.15,2013-06-17 11:22:00,
2013-06-17 07:27:00,67.1,65.6,29.95,ESE,118,1.0,2.0,95,0.00,,,0.00,100,Wunderground v.1.15,2013-06-17 11:27:00,
2013-06-17 07:32:00,67.2,65.7,29.94,ESE,118,0.0,2.0,95,0.00,,,0.00,114,Wunderground v.1.15,2013-06-17 11:32:00,
2013-06-17 07:37:00,67.3,65.8,29.94,ESE,118,2.0,2.0,95,0.00,,,0.00,104,Wunderground v.1.15,2013-06-17 11:37:00,
2013-06-17 07:42:00,67.2,65.4,29.94,ESE,115,2.0,3.0,94,0.00,,,0.00,98,Wunderground v.1.15,2013-06-17 11:42:00,
2013-06-17 07:47:00,67.2,65.7,29.94,ESE,115,0.0,3.0,95,0.00,,,0.00,107,Wunderground v.1.15,2013-06-17 11:47:00,
2013-06-17 07:52:00,67.3,65.8,29.94,ESE,115,1.0,2.0,95,0.00,,,0.00,121,Wunderground v.1.15,2013-06-17 11:52:00,
2013-06-17 07:57:00,67.3,65.5,29.94,East,88,3.0,3.0,94,0.00,,,0.00,148,Wunderground v.1.15,2013-06-17 11:57:00,
2013-06-17 08:02:00,67.5,66.0,29.94,East,86,1.0,3.0,95,0.00,,,0.00,179,Wunderground v.1.15,2013-06-17 12:02:00,
2013-06-17 08:07:00,67.7,66.2,29.95,East,94,2.0,3.0,95,0.00,,,0.00,123,Wunderground v.1.15,2013-06-17 12:07:00,
2013-06-17 08:12:00,67.9,66.1,29.95,East,89,2.0,3.0,94,0.00,,,0.00,116,Wunderground v.1.15,2013-06-17 12:12:00,
2013-06-17 08:17:00,68.0,66.2,29.94,East,89,1.0,3.0,94,0.00,,,0.00,111,Wunderground v.1.15,2013-06-17 12:17:00,
2013-06-17 08:22:00,67.9,66.1,29.95,East,89,2.0,3.0,94,0.00,,,0.00,97,Wunderground v.1.15,2013-06-17 12:22:00,
2013-06-17 08:27:00,68.1,66.3,29.95,East,86,0.0,3.0,94,0.00,,,0.00,111,Wunderground v.1.15,2013-06-17 12:27:00,
2013-06-17 08:32:00,68.2,66.4,29.95,East,86,0.0,1.0,94,0.00,,,0.00,111,Wunderground v.1.15,2013-06-17 12:32:00,
2013-06-17 08:37:00,68.4,66.6,29.95,East,86,0.0,2.0,94,0.00,,,0.00,139,Wunderground v.1.15,2013-06-17 12:37:00,
2013-06-17 08:42:00,68.6,66.5,29.96,East,86,0.0,1.0,93,0.00,,,0.00,213,Wunderground v.1.15,2013-06-17 12:42:00,
2013-06-17 08:47:00,69.4,67.6,29.96,East,86,0.0,2.0,94,0.00,,,0.00,364,Wunderground v.1.15,2013-06-17 12:47:00,
2013-06-17 08:52:00,69.7,67.3,29.96,East,86,0.0,2.0,92,0.00,,,0.00,158,Wunderground v.1.15,2013-06-17 12:52:00,
2013-06-17 08:57:00,70.2,68.1,29.96,East,86,0.0,2.0,93,0.00,,,0.00,178,Wunderground v.1.15,2013-06-17 12:57:00,
2013-06-17 09:02:00,70.7,68.3,29.96,East,85,0.0,2.0,92,0.00,,,0.00,171,Wunderground v.1.15,2013-06-17 13:02:00,
2013-06-17 09:07:00,71.0,68.2,29.96,West,259,0.0,4.0,91,0.00,,,0.00,213,Wunderground v.1.15,2013-06-17 13:07:00,
2013-06-17 09:12:00,72.0,68.9,29.96,West,259,1.0,3.0,90,0.00,,,0.00,424,Wunderground v.1.15,2013-06-17 13:12:00,
2013-06-17 09:17:00,72.0,68.6,29.96,West,277,4.0,6.0,89,0.00,,,0.00,388,Wunderground v.1.15,2013-06-17 13:17:00,
2013-06-17 09:22:00,72.2,68.8,29.96,West,269,6.0,6.0,89,0.00,,,0.00,367,Wunderground v.1.15,2013-06-17 13:22:00,
2013-06-17 09:27:00,72.9,69.1,29.96,WSW,247,0.0,6.0,88,0.00,,,0.00,478,Wunderground v.1.15,2013-06-17 13:27:00,
2013-06-17 09:32:00,73.6,69.2,29.96,West,267,0.0,5.0,86,0.00,,,0.00,478,Wunderground v.1.15,2013-06-17 13:32:00,
2013-06-17 09:37:00,74.2,69.4,29.96,West,262,1.0,6.0,85,0.00,,,0.00,547,Wunderground v.1.15,2013-06-17 13:37:00,
2013-06-17 09:42:00,74.8,70.3,29.96,WSW,247,6.0,6.0,86,0.00,,,0.00,564,Wunderground v.1.15,2013-06-17 13:42:00,
2013-06-17 09:47:00,75.2,70.0,29.96,West,278,3.0,6.0,84,0.00,,,0.00,555,Wunderground v.1.15,2013-06-17 13:47:00,
2013-06-17 09:52:00,75.7,70.2,29.96,West,271,2.0,6.0,83,0.00,,,0.00,496,Wunderground v.1.15,2013-06-17 13:52:00,
2013-06-17 09:57:00,75.8,69.9,29.96,NW,312,4.0,8.0,82,0.00,,,0.00,591,Wunderground v.1.15,2013-06-17 13:57:00,
2013-06-17 10:02:00,75.6,70.1,29.96,NW,319,5.0,8.0,83,0.00,,,0.00,559,Wunderground v.1.15,2013-06-17 14:02:00,
2013-06-17 10:07:00,75.6,69.7,29.95,WNW,291,2.0,8.0,82,0.00,,,0.00,592,Wunderground v.1.15,2013-06-17 14:07:00,
2013-06-17 10:12:00,76.2,69.9,29.95,West,265,3.0,6.0,81,0.00,,,0.00,603,Wunderground v.1.15,2013-06-17 14:12:00,
2013-06-17 10:17:00,76.7,70.1,29.95,WSW,245,2.0,7.0,80,0.00,,,0.00,615,Wunderground v.1.15,2013-06-17 14:17:00,
2013-06-17 10:22:00,77.6,70.9,29.95,WSW,246,7.0,8.0,80,0.00,,,0.00,633,Wunderground v.1.15,2013-06-17 14:22:00,
2013-06-17 10:27:00,77.6,70.6,29.95,West,263,2.0,8.0,79,0.00,,,0.00,650,Wunderground v.1.15,2013-06-17 14:27:00,
2013-06-17 10:32:00,77.9,70.9,29.95,WSW,252,6.0,6.0,79,0.00,,,0.00,656,Wunderground v.1.15,2013-06-17 14:32:00,
2013-06-17 10:37:00,78.3,70.9,29.95,SW,236,3.0,6.0,78,0.00,,,0.00,686,Wunderground v.1.15,2013-06-17 14:37:00,
2013-06-17 10:42:00,78.8,71.4,29.95,South,191,1.0,7.0,78,0.00,,,0.00,735,Wunderground v.1.15,2013-06-17 14:42:00,
2013-06-17 10:47:00,79.4,70.8,29.95,WNW,293,0.0,7.0,75,0.00,,,0.00,751,Wunderground v.1.15,2013-06-17 14:47:00,
2013-06-17 10:52:00,79.6,70.6,29.95,WNW,289,3.0,6.0,74,0.00,,,0.00,722,Wunderground v.1.15,2013-06-17 14:52:00,
2013-06-17 10:57:00,80.9,72.2,29.94,SW,233,1.0,7.0,75,0.00,,,0.00,745,Wunderground v.1.15,2013-06-17 14:57:00,
2013-06-17 11:02:00,80.5,71.4,29.95,West,266,0.0,5.0,74,0.00,,,0.00,798,Wunderground v.1.15,2013-06-17 15:02:00,
2013-06-17 11:07:00,80.8,71.3,29.94,WSW,241,1.0,5.0,73,0.00,,,0.00,795,Wunderground v.1.15,2013-06-17 15:07:00,
2013-06-17 11:12:00,80.7,71.2,29.94,WSW,245,0.0,5.0,73,0.00,,,0.00,779,Wunderground v.1.15,2013-06-17 15:12:00,
2013-06-17 11:17:00,79.9,71.7,29.94,SSE,163,0.0,5.0,76,0.00,,,0.00,844,Wunderground v.1.15,2013-06-17 15:17:00,
2013-06-17 11:22:00,81.0,71.1,29.94,WSW,243,5.0,6.0,72,0.00,,,0.00,856,Wunderground v.1.15,2013-06-17 15:22:00,
2013-06-17 11:27:00,81.2,70.5,29.95,NW,317,3.0,7.0,70,0.00,,,0.00,868,Wunderground v.1.15,2013-06-17 15:27:00,
2013-06-17 11:32:00,81.7,70.5,29.95,West,267,0.0,6.0,69,0.00,,,0.00,847,Wunderground v.1.15,2013-06-17 15:32:00,
2013-06-17 11:38:00,81.9,72.0,29.95,West,259,5.0,6.0,72,0.00,,,0.00,911,Wunderground v.1.15,2013-06-17 15:38:00,
2013-06-17 11:43:00,82.0,70.8,29.95,WNW,299,1.0,6.0,69,0.00,,,0.00,875,Wunderground v.1.15,2013-06-17 15:43:00,
2013-06-17 11:48:00,82.0,71.2,29.95,West,267,5.0,6.0,70,0.00,,,0.00,258,Wunderground v.1.15,2013-06-17 15:48:00,
2013-06-17 11:53:00,81.9,70.7,29.94,West,259,3.0,5.0,69,0.00,,,0.00,881,Wunderground v.1.15,2013-06-17 15:53:00,
2013-06-17 11:58:00,82.9,71.3,29.94,WNW,302,4.0,5.0,68,0.00,,,0.00,893,Wunderground v.1.15,2013-06-17 15:58:00,
2013-06-17 12:03:00,82.7,70.6,29.94,NW,311,2.0,5.0,67,0.00,,,0.00,313,Wunderground v.1.15,2013-06-17 16:03:00,
2013-06-17 12:08:00,83.1,71.9,29.94,SW,225,5.0,6.0,69,0.00,,,0.00,979,Wunderground v.1.15,2013-06-17 16:08:00,
2013-06-17 12:13:00,82.5,71.3,29.94,SSW,206,2.0,6.0,69,0.00,,,0.00,1039,Wunderground v.1.15,2013-06-17 16:13:00,
2013-06-17 12:18:00,83.8,72.1,29.94,West,259,3.0,6.0,68,0.00,,,0.00,1013,Wunderground v.1.15,2013-06-17 16:18:00,
2013-06-17 12:23:00,83.8,72.5,29.93,SW,236,0.0,6.0,69,0.00,,,0.00,362,Wunderground v.1.15,2013-06-17 16:23:00,
2013-06-17 12:28:00,83.1,71.4,29.93,SSW,198,1.0,3.0,68,0.00,,,0.00,380,Wunderground v.1.15,2013-06-17 16:28:00,
2013-06-17 12:33:00,83.4,71.7,29.93,West,259,2.0,7.0,68,0.00,,,0.00,1090,Wunderground v.1.15,2013-06-17 16:33:00,
2013-06-17 12:38:00,83.4,71.3,29.93,WSW,250,3.0,4.0,67,0.00,,,0.00,835,Wunderground v.1.15,2013-06-17 16:38:00,
2013-06-17 12:43:00,83.5,72.3,29.93,WSW,247,3.0,6.0,69,0.00,,,0.00,371,Wunderground v.1.15,2013-06-17 16:43:00,
2013-06-17 12:48:00,82.7,72.3,29.93,South,171,3.0,3.0,71,0.00,,,0.00,304,Wunderground v.1.15,2013-06-17 16:48:00,
2013-06-17 12:53:00,83.0,72.6,29.93,WSW,245,5.0,7.0,71,0.00,,,0.00,1004,Wunderground v.1.15,2013-06-17 16:53:00,
2013-06-17 12:58:00,83.8,72.1,29.93,WSW,247,2.0,4.0,68,0.00,,,0.00,976,Wunderground v.1.15,2013-06-17 16:58:00,
2013-06-17 13:03:00,84.9,71.8,29.93,SW,225,2.0,6.0,65,0.00,,,0.00,981,Wunderground v.1.15,2013-06-17 17:03:00,
2013-06-17 13:08:00,85.0,71.5,29.93,West,279,4.0,4.0,64,0.00,,,0.00,986,Wunderground v.1.15,2013-06-17 17:08:00,
2013-06-17 13:13:00,85.6,72.0,29.93,West,263,2.0,6.0,64,0.00,,,0.00,1041,Wunderground v.1.15,2013-06-17 17:13:00,
2013-06-17 13:18:00,85.4,72.3,29.93,WSW,254,0.0,3.0,65,0.00,,,0.00,403,Wunderground v.1.15,2013-06-17 17:18:00,
2013-06-17 13:23:00,84.9,71.4,29.93,WSW,244,3.0,4.0,64,0.00,,,0.00,863,Wunderground v.1.15,2013-06-17 17:23:00,
2013-06-17 13:28:00,84.4,71.3,29.93,WSW,256,3.0,3.0,65,0.00,,,0.00,343,Wunderground v.1.15,2013-06-17 17:28:00,
2013-06-17 13:33:00,84.4,71.8,29.93,SW,226,7.0,7.0,66,0.00,,,0.00,462,Wunderground v.1.15,2013-06-17 17:33:00,
2013-06-17 13:38:00,84.8,71.7,29.93,SSW,202,5.0,6.0,65,0.00,,,0.00,311,Wunderground v.1.15,2013-06-17 17:38:00,
2013-06-17 13:43:00,84.7,71.2,29.93,WSW,246,5.0,7.0,64,0.00,,,0.00,272,Wunderground v.1.15,2013-06-17 17:43:00,
2013-06-17 13:48:00,84.5,71.0,29.93,WSW,238,4.0,5.0,64,0.00,,,0.00,276,Wunderground v.1.15,2013-06-17 17:48:00,
2013-06-17 13:53:00,84.1,70.6,29.93,West,275,3.0,6.0,64,0.00,,,0.00,345,Wunderground v.1.15,2013-06-17 17:53:00,
2013-06-17 13:58:00,85.0,71.5,29.93,WSW,237,3.0,4.0,64,0.00,,,0.00,541,Wunderground v.1.15,2013-06-17 17:58:00,
2013-06-17 14:03:00,84.3,72.1,29.92,West,277,1.0,5.0,67,0.00,,,0.00,1104,Wunderground v.1.15,2013-06-17 18:03:00,
2013-06-17 14:08:00,85.5,71.5,29.92,SW,223,2.0,5.0,63,0.00,,,0.00,1011,Wunderground v.1.15,2013-06-17 18:08:00,
2013-06-17 14:13:00,86.1,72.0,29.92,West,268,6.0,6.0,63,0.00,,,0.00,958,Wunderground v.1.15,2013-06-17 18:13:00,
2013-06-17 14:18:00,85.9,71.4,29.92,NW,311,3.0,4.0,62,0.00,,,0.00,290,Wunderground v.1.15,2013-06-17 18:18:00,
2013-06-17 14:23:00,84.6,71.1,29.92,NNE,33,1.0,5.0,64,0.00,,,0.00,251,Wunderground v.1.15,2013-06-17 18:23:00,
2013-06-17 14:28:00,84.5,70.5,29.91,WSW,257,4.0,4.0,63,0.00,,,0.00,199,Wunderground v.1.15,2013-06-17 18:28:00,
2013-06-17 14:33:00,84.6,70.6,29.91,WNW,285,3.0,5.0,63,0.00,,,0.00,218,Wunderground v.1.15,2013-06-17 18:33:00,
2013-06-17 14:38:00,84.4,71.3,29.91,NNW,327,1.0,3.0,65,0.00,,,0.00,302,Wunderground v.1.15,2013-06-17 18:38:00,
2013-06-17 14:43:00,84.2,71.2,29.91,SSE,153,1.0,4.0,65,0.00,,,0.00,432,Wunderground v.1.15,2013-06-17 18:43:00,
2013-06-17 14:48:00,85.6,73.4,29.90,NNW,344,1.0,3.0,67,0.00,,,0.00,1046,Wunderground v.1.15,2013-06-17 18:48:00,
2013-06-17 14:53:00,85.5,71.5,29.90,SW,227,3.0,5.0,63,0.00,,,0.00,359,Wunderground v.1.15,2013-06-17 18:53:00,
2013-06-17 14:58:00,84.8,71.7,29.90,NW,322,3.0,4.0,65,0.00,,,0.00,283,Wunderground v.1.15,2013-06-17 18:58:00,
2013-06-17 15:03:00,86.0,71.0,29.90,NW,320,3.0,6.0,61,0.00,,,0.00,977,Wunderground v.1.15,2013-06-17 19:03:00,
2013-06-17 15:08:00,86.3,70.3,29.90,WNW,295,3.0,3.0,59,0.00,,,0.00,570,Wunderground v.1.15,2013-06-17 19:08:00,
2013-06-17 15:13:00,86.9,73.3,29.90,North,5,3.0,5.0,64,0.00,,,0.00,977,Wunderground v.1.15,2013-06-17 19:13:00,
2013-06-17 15:18:00,86.5,71.9,29.89,North,360,1.0,3.0,62,0.00,,,0.00,896,Wunderground v.1.15,2013-06-17 19:18:00,
2013-06-17 15:23:00,85.5,72.8,29.89,NNE,24,7.0,7.0,66,0.00,,,0.00,900,Wunderground v.1.15,2013-06-17 19:23:00,
2013-06-17 15:28:00,85.0,70.5,29.89,NE,53,3.0,3.0,62,0.00,,,0.00,944,Wunderground v.1.15,2013-06-17 19:28:00,
2013-06-17 15:33:00,85.2,71.2,29.88,NNE,30,2.0,4.0,63,0.00,,,0.00,969,Wunderground v.1.15,2013-06-17 19:33:00,
2013-06-17 15:38:00,86.0,71.0,29.88,NNW,345,2.0,2.0,61,0.00,,,0.00,904,Wunderground v.1.15,2013-06-17 19:38:00,
2013-06-17 15:43:00,87.4,70.8,29.88,WSW,242,3.0,5.0,58,0.00,,,0.00,928,Wunderground v.1.15,2013-06-17 19:43:00,
2013-06-17 15:48:00,87.1,70.5,29.87,SW,223,0.0,3.0,58,0.00,,,0.00,364,Wunderground v.1.15,2013-06-17 19:48:00,
2013-06-17 15:53:00,87.9,71.3,29.87,West,262,0.0,3.0,58,0.00,,,0.00,953,Wunderground v.1.15,2013-06-17 19:53:00,
2013-06-17 15:58:00,87.7,71.1,29.87,WNW,292,1.0,4.0,58,0.00,,,0.00,274,Wunderground v.1.15,2013-06-17 19:58:00,
2013-06-17 16:03:00,86.6,71.1,29.87,NNW,346,2.0,5.0,60,0.00,,,0.00,214,Wunderground v.1.15,2013-06-17 20:03:00,
2013-06-17 16:08:00,86.0,71.0,29.87,NNE,18,2.0,2.0,61,0.00,,,0.00,207,Wunderground v.1.15,2013-06-17 20:08:00,
2013-06-17 16:13:00,85.5,70.5,29.86,NNE,19,0.0,2.0,61,0.00,,,0.00,278,Wunderground v.1.15,2013-06-17 20:13:00,
2013-06-17 16:18:00,85.2,71.2,29.86,SE,139,4.0,4.0,63,0.00,,,0.00,494,Wunderground v.1.15,2013-06-17 20:18:00,
2013-06-17 16:23:00,83.9,70.4,29.86,SSE,159,2.0,5.0,64,0.00,,,0.00,214,Wunderground v.1.15,2013-06-17 20:23:00,
2013-06-17 16:28:00,83.7,70.7,29.85,SSE,165,4.0,4.0,65,0.00,,,0.00,211,Wunderground v.1.15,2013-06-17 20:28:00,
2013-06-17 16:33:00,83.9,71.8,29.85,South,188,0.0,6.0,67,0.00,,,0.00,262,Wunderground v.1.15,2013-06-17 20:33:00,
2013-06-17 16:38:00,83.6,71.5,29.85,ESE,105,1.0,4.0,67,0.00,,,0.00,267,Wunderground v.1.15,2013-06-17 20:38:00,
2013-06-17 16:43:00,83.1,71.0,29.85,ESE,120,2.0,5.0,67,0.00,,,0.00,236,Wunderground v.1.15,2013-06-17 20:43:00,
2013-06-17 16:48:00,83.1,71.0,29.85,ESE,119,0.0,2.0,67,0.00,,,0.00,237,Wunderground v.1.15,2013-06-17 20:48:00,
2013-06-17 16:53:00,83.6,70.6,29.85,SSE,167,3.0,4.0,65,0.00,,,0.00,250,Wunderground v.1.15,2013-06-17 20:53:00,
2013-06-17 16:58:00,83.2,70.7,29.84,SE,129,3.0,3.0,66,0.00,,,0.00,278,Wunderground v.1.15,2013-06-17 20:58:00,
2013-06-17 17:03:00,83.2,71.1,29.84,SE,146,1.0,4.0,67,0.00,,,0.00,236,Wunderground v.1.15,2013-06-17 21:03:00,
2013-06-17 17:08:00,83.4,70.4,29.84,SSE,152,3.0,5.0,65,0.00,,,0.00,188,Wunderground v.1.15,2013-06-17 21:08:00,
2013-06-17 17:13:00,83.1,70.6,29.84,South,169,3.0,5.0,66,0.00,,,0.00,148,Wunderground v.1.15,2013-06-17 21:13:00,
2013-06-17 17:18:00,82.9,70.8,29.84,South,177,3.0,3.0,67,0.00,,,0.00,125,Wunderground v.1.15,2013-06-17 21:18:00,
2013-06-17 17:23:00,83.3,71.2,29.85,SW,219,0.0,6.0,67,0.00,,,0.00,97,Wunderground v.1.15,2013-06-17 21:23:00,
2013-06-17 17:28:00,83.5,71.4,29.85,SSW,213,1.0,3.0,67,0.00,,,0.00,69,Wunderground v.1.15,2013-06-17 21:28:00,
2013-06-17 17:33:00,83.4,71.7,29.85,SSW,207,2.0,3.0,68,0.00,,,0.00,49,Wunderground v.1.15,2013-06-17 21:33:00,
2013-06-17 17:38:00,83.1,71.4,29.85,SSW,192,4.0,4.0,68,0.00,,,0.00,37,Wunderground v.1.15,2013-06-17 21:38:00,
2013-06-17 17:43:00,82.9,71.3,29.85,SSW,192,3.0,4.0,68,0.00,,,0.00,33,Wunderground v.1.15,2013-06-17 21:43:00,
2013-06-17 17:48:00,82.8,71.2,29.85,SSW,192,0.0,1.0,68,0.00,,,0.00,32,Wunderground v.1.15,2013-06-17 21:48:00,
2013-06-17 17:54:00,83.0,71.3,29.86,SSW,192,0.0,1.0,68,0.00,,,0.00,32,Wunderground v.1.15,2013-06-17 21:54:00,
2013-06-17 17:59:00,82.8,71.6,29.86,SSW,192,0.0,2.0,69,0.00,,,0.00,37,Wunderground v.1.15,2013-06-17 21:59:00,
2013-06-17 18:04:00,82.8,72.0,29.86,SSW,199,1.0,4.0,70,0.00,,,0.00,40,Wunderground v.1.15,2013-06-17 22:04:00,
2013-06-17 18:09:00,82.7,71.5,29.86,SSW,202,0.0,4.0,69,0.00,,,0.00,46,Wunderground v.1.15,2013-06-17 22:09:00,
2013-06-17 18:14:00,82.5,72.1,29.87,SSW,201,0.0,4.0,71,0.00,,,0.00,42,Wunderground v.1.15,2013-06-17 22:14:00,
2013-06-17 18:19:00,82.3,72.8,29.87,SSW,202,2.0,2.0,73,0.00,,,0.00,37,Wunderground v.1.15,2013-06-17 22:19:00,
2013-06-17 18:24:00,81.9,73.6,29.87,SW,221,2.0,3.0,76,0.00,,,0.00,28,Wunderground v.1.15,2013-06-17 22:24:00,
2013-06-17 18:29:00,81.4,73.9,29.87,SW,215,7.0,7.0,78,0.00,,,0.00,25,Wunderground v.1.15,2013-06-17 22:29:00,
2013-06-17 18:34:00,80.7,73.6,29.87,SW,220,3.0,8.0,79,0.00,,,0.00,25,Wunderground v.1.15,2013-06-17 22:34:00,
2013-06-17 18:39:00,80.0,72.5,29.86,WSW,243,3.0,4.0,78,0.00,,,0.00,26,Wunderground v.1.15,2013-06-17 22:39:00,
2013-06-17 18:44:00,79.5,71.7,29.86,SW,225,6.0,8.0,77,0.00,,,0.00,30,Wunderground v.1.15,2013-06-17 22:44:00,
2013-06-17 18:49:00,79.1,70.9,29.86,WSW,241,5.0,7.0,76,0.00,,,0.00,28,Wunderground v.1.15,2013-06-17 22:49:00,
2013-06-17 18:54:00,79.1,70.5,29.87,WSW,256,16.0,17.0,75,0.00,,,0.00,25,Wunderground v.1.15,2013-06-17 22:54:00,
2013-06-17 18:59:00,78.2,71.9,29.88,West,275,7.0,12.0,81,0.00,,,0.00,25,Wunderground v.1.15,2013-06-17 22:59:00,
2013-06-17 19:04:00,76.5,70.2,29.88,WNW,303,12.0,20.0,81,0.00,,,0.00,23,Wunderground v.1.15,2013-06-17 23:04:00,
2013-06-17 19:09:00,75.5,70.0,29.88,WNW,285,7.0,13.0,83,0.00,,,0.00,21,Wunderground v.1.15,2013-06-17 23:09:00,
2013-06-17 19:14:00,74.7,69.2,29.88,WNW,298,15.0,18.0,83,0.00,,,0.00,19,Wunderground v.1.15,2013-06-17 23:14:00,
2013-06-17 19:19:00,74.2,68.7,29.89,WNW,284,7.0,12.0,83,0.00,,,0.00,18,Wunderground v.1.15,2013-06-17 23:19:00,
2013-06-17 19:24:00,73.9,68.8,29.89,WNW,287,6.0,12.0,84,0.00,,,0.00,16,Wunderground v.1.15,2013-06-17 23:24:00,
2013-06-17 19:29:00,73.7,68.9,29.89,NW,311,10.0,10.0,85,0.00,,,0.00,21,Wunderground v.1.15,2013-06-17 23:29:00,
2013-06-17 19:34:00,73.4,69.0,29.89,NW,311,7.0,12.0,86,0.00,,,0.00,16,Wunderground v.1.15,2013-06-17 23:34:00,
2013-06-17 19:39:00,73.0,68.6,29.89,NW,311,6.0,11.0,86,0.00,,,0.00,16,Wunderground v.1.15,2013-06-17 23:39:00,
2013-06-17 19:44:00,72.4,68.3,29.89,NNW,341,7.0,12.0,87,0.00,,,0.00,14,Wunderground v.1.15,2013-06-17 23:44:00,
2013-06-17 19:49:00,71.9,67.8,29.89,NNW,340,4.0,8.0,87,0.00,,,0.00,12,Wunderground v.1.15,2013-06-17 23:49:00,
2013-06-17 19:54:00,71.8,67.7,29.88,WNW,283,4.0,8.0,87,0.00,,,0.00,11,Wunderground v.1.15,2013-06-17 23:54:00,
2013-06-17 19:59:00,71.9,68.2,29.87,SSW,203,7.0,7.0,88,0.00,,,0.00,9,Wunderground v.1.15,2013-06-17 23:59:00,
2013-06-17 20:04:00,72.1,68.3,29.86,SSW,202,2.0,7.0,88,0.00,,,0.00,9,Wunderground v.1.15,2013-06-18 00:04:00,
2013-06-17 20:09:00,72.2,68.4,29.86,WSW,243,4.0,7.0,88,0.00,,,0.00,9,Wunderground v.1.15,2013-06-18 00:09:00,
2013-06-17 20:14:00,72.1,68.3,29.86,SSW,207,3.0,7.0,88,0.00,,,0.00,7,Wunderground v.1.15,2013-06-18 00:14:00,
2013-06-17 20:19:00,72.2,68.1,29.86,WSW,240,5.0,8.0,87,0.00,,,0.00,5,Wunderground v.1.15,2013-06-18 00:19:00,
2013-06-17 20:24:00,72.3,67.9,29.85,South,173,2.0,9.0,86,0.00,,,0.00,5,Wunderground v.1.15,2013-06-18 00:24:00,
2013-06-17 20:29:00,72.8,67.0,29.86,SSW,197,2.0,5.0,82,0.00,,,0.00,0,Wunderground v.1.15,2013-06-18 00:29:00,
2013-06-17 20:34:00,72.9,66.7,29.88,ESE,102,11.0,11.0,81,0.00,,,0.00,0,Wunderground v.1.15,2013-06-18 00:34:00,
2013-06-17 20:39:00,72.5,66.0,29.89,SE,138,4.0,6.0,80,0.00,,,0.00,0,Wunderground v.1.15,2013-06-18 00:39:00,
2013-06-17 20:44:00,73.0,65.4,29.89,SW,225,3.0,8.0,77,0.00,,,0.00,0,Wunderground v.1.15,2013-06-18 00:44:00,
2013-06-17 20:49:00,73.2,65.2,29.89,South,185,2.0,4.0,76,0.00,,,0.00,0,Wunderground v.1.15,2013-06-18 00:49:00,
2013-06-17 20:54:00,73.2,65.2,29.89,WSW,245,0.0,5.0,76,0.00,,,0.00,0,Wunderground v.1.15,2013-06-18 00:54:00,
2013-06-17 20:59:00,73.3,65.7,29.89,WSW,253,1.0,2.0,77,0.00,,,0.00,0,Wunderground v.1.15,2013-06-18 00:59:00,
2013-06-17 21:04:00,73.2,65.6,29.90,WNW,296,2.0,2.0,77,0.00,,,0.00,0,Wunderground v.1.15,2013-06-18 01:04:00,
2013-06-17 21:09:00,73.1,65.8,29.91,North,11,5.0,6.0,78,0.00,,,0.00,0,Wunderground v.1.15,2013-06-18 01:09:00,
2013-06-17 21:14:00,72.8,66.6,29.92,NNW,342,11.0,11.0,81,0.00,,,0.00,0,Wunderground v.1.15,2013-06-18 01:14:00,
2013-06-17 21:19:00,72.1,66.6,29.92,NNW,331,6.0,8.0,83,0.00,,,0.00,0,Wunderground v.1.15,2013-06-18 01:19:00,
2013-06-17 21:24:00,71.5,66.4,29.92,NNW,329,8.0,10.0,84,0.00,,,0.00,0,Wunderground v.1.15,2013-06-18 01:24:00,
2013-06-17 21:29:00,71.0,66.3,29.91,NW,325,9.0,16.0,85,0.00,,,0.00,0,Wunderground v.1.15,2013-06-18 01:29:00,
2013-06-17 21:34:00,70.5,65.8,29.91,NNW,329,10.0,16.0,85,0.00,,,0.00,0,Wunderground v.1.15,2013-06-18 01:34:00,
2013-06-17 21:39:00,70.0,66.0,29.91,NNW,338,10.0,11.0,87,0.00,,,0.00,0,Wunderground v.1.15,2013-06-18 01:39:00,
2013-06-17 21:44:00,69.6,65.9,29.91,WNW,296,5.0,13.0,88,0.00,,,0.00,0,Wunderground v.1.15,2013-06-18 01:44:00,
2013-06-17 21:49:00,69.3,65.6,29.92,NW,314,9.0,14.0,88,0.00,,,0.00,0,Wunderground v.1.15,2013-06-18 01:49:00,
2013-06-17 21:54:00,69.1,65.7,29.92,NNW,331,5.0,14.0,89,0.00,,,0.00,0,Wunderground v.1.15,2013-06-18 01:54:00,
2013-06-17 21:59:00,68.9,65.5,29.93,WNW,296,2.0,7.0,89,0.00,,,0.00,0,Wunderground v.1.15,2013-06-18 01:59:00,
2013-06-17 22:04:00,68.7,65.3,29.93,NW,320,6.0,10.0,89,0.00,,,0.00,0,Wunderground v.1.15,2013-06-18 02:04:00,
2013-06-17 22:09:00,68.6,65.2,29.93,West,274,5.0,8.0,89,0.00,,,0.00,0,Wunderground v.1.15,2013-06-18 02:09:00,
2013-06-17 22:14:00,68.5,65.1,29.93,WNW,288,4.0,9.0,89,0.00,,,0.00,0,Wunderground v.1.15,2013-06-18 02:14:00,
2013-06-17 22:19:00,68.4,65.0,29.94,West,267,6.0,9.0,89,0.00,,,0.00,0,Wunderground v.1.15,2013-06-18 02:19:00,
2013-06-17 22:24:00,68.4,65.0,29.95,SW,227,5.0,9.0,89,0.00,,,0.00,0,Wunderground v.1.15,2013-06-18 02:24:00,
2013-06-17 22:29:00,68.4,65.4,29.96,SW,219,6.0,11.0,90,0.00,,,0.00,0,Wunderground v.1.15,2013-06-18 02:29:00,
2013-06-17 22:34:00,68.3,65.6,29.95,WSW,242,5.0,11.0,91,0.00,,,0.00,0,Wunderground v.1.15,2013-06-18 02:34:00,
2013-06-17 22:39:00,68.2,65.5,29.96,WSW,248,6.0,6.0,91,0.00,,,0.00,0,Wunderground v.1.15,2013-06-18 02:39:00,
2013-06-17 22:44:00,68.1,65.4,29.95,WSW,242,4.0,7.0,91,0.00,,,0.00,0,Wunderground v.1.15,2013-06-18 02:44:00,
2013-06-17 22:49:00,68.1,65.4,29.96,SSW,211,1.0,5.0,91,0.00,,,0.00,0,Wunderground v.1.15,2013-06-18 02:49:00,
2013-06-17 22:54:00,68.0,65.3,29.95,WSW,239,1.0,5.0,91,0.00,,,0.00,0,Wunderground v.1.15,2013-06-18 02:54:00,
2013-06-17 22:59:00,67.9,65.2,29.95,WSW,242,1.0,4.0,91,0.00,,,0.00,0,Wunderground v.1.15,2013-06-18 02:59:00,
2013-06-17 23:04:00,67.9,65.2,29.95,WSW,240,5.0,6.0,91,0.00,,,0.00,0,Wunderground v.1.15,2013-06-18 03:04:00,
2013-06-17 23:09:00,67.7,65.0,29.94,WSW,248,6.0,6.0,91,0.00,,,0.00,0,Wunderground v.1.15,2013-06-18 03:09:00,
2013-06-17 23:14:00,67.6,64.9,29.93,WSW,252,5.0,7.0,91,0.00,,,0.00,0,Wunderground v.1.15,2013-06-18 03:14:00,
2013-06-17 23:19:00,67.5,64.8,29.93,WSW,252,5.0,5.0,91,0.00,,,0.00,0,Wunderground v.1.15,2013-06-18 03:19:00,
2013-06-17 23:24:00,67.4,64.7,29.92,West,271,3.0,6.0,91,0.00,,,0.00,0,Wunderground v.1.15,2013-06-18 03:24:00,
2013-06-17 23:29:00,67.3,64.3,29.92,West,261,1.0,3.0,90,0.00,,,0.00,0,Wunderground v.1.15,2013-06-18 03:29:00,
2013-06-17 23:34:00,67.3,64.3,29.92,West,261,3.0,4.0,90,0.00,,,0.00,0,Wunderground v.1.15,2013-06-18 03:34:00,
2013-06-17 23:39:00,67.3,64.6,29.91,WSW,258,1.0,2.0,91,0.00,,,0.00,0,Wunderground v.1.15,2013-06-18 03:39:00,
2013-06-17 23:44:00,67.3,64.6,29.91,WSW,258,1.0,3.0,91,0.00,,,0.00,0,Wunderground v.1.15,2013-06-18 03:44:00,
2013-06-17 23:49:00,67.2,64.5,29.91,West,270,0.0,4.0,91,0.00,,,0.00,0,Wunderground v.1.15,2013-06-18 03:49:00,
2013-06-17 23:55:00,67.2,64.5,29.90,West,270,0.0,4.0,91,0.00,,,0.00,0,Wunderground v.1.15,2013-06-18 03:55:00,